Terminal Aerodrome Forecast
Issued by NWS

Home | Current Version | Previous Version | Text Only | Print | Product List | Glossary Off
Versions: 1 2 3 4 5 6 7 8 9 10 11 12 13 14 15 16

193
FTUS41 KCLE 081130
TAFFDY
TAF
KFDY 081130Z 0812/0912 26015G25KT P6SM OVC022
     FM081800 26020G30KT P6SM OVC030
     FM090200 27014G22KT P6SM -SHSN OVC025=

USA.gov is the U.S. government's official web portal to all federal, state and local government web resources and services.